Pagrindinis puslapis
METAR-TAF:

METAR-TAF

Oro uostai :

Beirutas, Libanas

platuma: 33-49N, ilguma: 035-29E, Aukštis: 29 m

Dabartinis oras

Ataskaita buvo paskelbta 58 minutes, ne 10:00 UTC
Vėjas 9 kt iš Šiaurės/Šiaurės Vakarų
Temperatūra 37°C
Drėgmė 22%
Slėgis 1015 hPa
Matomumas 10 km arba daugiau
Mažai debesys ne aukštis 2600 ft

METAR: OLBA 141000Z 34009KT 9999 FEW026 37/12 Q1015 NOSIG

Laikas: 13:58 (10:58 UTC)

Prognozė

Ataskaita buvo paskelbta 6 valandos ir 58 minutes, ne 04:00 UTC
Prognozė galioja nuo 14 metu 06 UTC su 15 metu 12 UTC
Vėjas 13 kt iš Šiaurės/Šiaurės Rytų
Matomumas: 8000 m
Tapsmas
nuo 14 metu 20 UTC su 14 metu 22 UTC
Vėjas 6 kt iš Rytų/Pietryčių
Matomumas 10 km arba daugiau
nėra debesų žemiau 1500 m ir nėra kamuolinių lietaus debesų
Tapsmas
nuo 15 metu 06 UTC su 15 metu 09 UTC
Vėjas 13 kt iš Pietryčių
Matomumas: 7000 m
Išsisklaidę debesys ne aukštis 8000 ft
Išsisklaidę debesys ne aukštis 20000 ft

TAF: OLBA 140400Z 1406/1512 03013KT 8000 NSC BECMG 1420/1422 12006KT CAVOK BECMG 1506/1509 14013KT 7000 SCT080 SCT200

Orai ataskaitas ir orų prognozės (METAR, TAF).

turimą stotys yra geltonos ir raudonos taškus žemėlapyje.

Perkelti pele per norėdami pamatyti stoties vardą.

Tada spustelėkite, norėdami matyti oro stebėjimo ir prognozės.

Norėdami pakeisti žemėlapį: spustelėkite ant žalios mygtukų su juodo kryžiaus žemyn,; žalią mygtuką su brūkšneliu, jei norite nutolinti; arba žalių rodyklių gretimoms žemėlapius.


METAR-TAF: